sensor_id;sensor_type;location;lat;lon;timestamp;temperature;humidity
4279;DHT22;2153;47.744;10.580;2022-08-05T00:00:45;18.10;99.90
4279;DHT22;2153;47.744;10.580;2022-08-05T00:03:12;18.10;99.90
4279;DHT22;2153;47.744;10.580;2022-08-05T00:05:41;18.10;99.90
4279;DHT22;2153;47.744;10.580;2022-08-05T00:08:08;17.90;99.90
4279;DHT22;2153;47.744;10.580;2022-08-05T00:10:35;17.80;99.90
4279;DHT22;2153;47.744;10.580;2022-08-05T00:13:01;17.80;99.90
4279;DHT22;2153;47.744;10.580;2022-08-05T00:15:28;17.70;99.90
4279;DHT22;2153;47.744;10.580;2022-08-05T00:17:55;17.80;99.90
4279;DHT22;2153;47.744;10.580;2022-08-05T00:20:22;17.80;99.90
4279;DHT22;2153;47.744;10.580;2022-08-05T00:22:50;17.80;99.90
4279;DHT22;2153;47.744;10.580;2022-08-05T00:25:17;17.80;99.90
4279;DHT22;2153;47.744;10.580;2022-08-05T00:27:43;17.80;99.90
4279;DHT22;2153;47.744;10.580;2022-08-05T00:30:11;17.70;99.90
4279;DHT22;2153;47.744;10.580;2022-08-05T00:32:37;17.60;99.90
4279;DHT22;2153;47.744;10.580;2022-08-05T00:35:05;17.50;99.90
4279;DHT22;2153;47.744;10.580;2022-08-05T00:37:32;17.40;99.90
4279;DHT22;2153;47.744;10.580;2022-08-05T00:40:01;17.40;99.90
4279;DHT22;2153;47.744;10.580;2022-08-05T00:42:32;17.50;99.90
4279;DHT22;2153;47.744;10.580;2022-08-05T00:45:00;17.50;99.90
4279;DHT22;2153;47.744;10.580;2022-08-05T00:47:27;17.50;99.90
4279;DHT22;2153;47.744;10.580;2022-08-05T00:49:53;17.50;99.90
4279;DHT22;2153;47.744;10.580;2022-08-05T00:52:20;17.40;99.90
4279;DHT22;2153;47.744;10.580;2022-08-05T00:54:47;17.50;99.90
4279;DHT22;2153;47.744;10.580;2022-08-05T00:57:15;17.60;99.90
4279;DHT22;2153;47.744;10.580;2022-08-05T00:59:42;17.70;99.90
4279;DHT22;2153;47.744;10.580;2022-08-05T01:02:09;17.60;99.90
4279;DHT22;2153;47.744;10.580;2022-08-05T01:04:35;17.50;99.90
4279;DHT22;2153;47.744;10.580;2022-08-05T01:07:02;17.40;99.90
4279;DHT22;2153;47.744;10.580;2022-08-05T01:09:29;17.20;99.90
4279;DHT22;2153;47.744;10.580;2022-08-05T01:11:58;17.20;99.90
4279;DHT22;2153;47.744;10.580;2022-08-05T01:14:34;17.10;99.90
4279;DHT22;2153;47.744;10.580;2022-08-05T01:17:04;17.10;99.90
4279;DHT22;2153;47.744;10.580;2022-08-05T01:19:35;17.20;99.90
4279;DHT22;2153;47.744;10.580;2022-08-05T01:22:37;17.30;99.90
4279;DHT22;2153;47.744;10.580;2022-08-05T01:28:26;17.60;99.90
4279;DHT22;2153;47.744;10.580;2022-08-05T01:31:01;17.70;99.90
4279;DHT22;2153;47.744;10.580;2022-08-05T01:33:33;17.80;99.90
4279;DHT22;2153;47.744;10.580;2022-08-05T01:36:05;17.80;99.90
4279;DHT22;2153;47.744;10.580;2022-08-05T01:38:34;17.80;99.90
4279;DHT22;2153;47.744;10.580;2022-08-05T01:41:03;17.70;99.90
4279;DHT22;2153;47.744;10.580;2022-08-05T01:43:32;17.70;99.90
4279;DHT22;2153;47.744;10.580;2022-08-05T01:46:01;17.60;99.90
4279;DHT22;2153;47.744;10.580;2022-08-05T01:48:28;17.40;99.90
4279;DHT22;2153;47.744;10.580;2022-08-05T01:50:57;17.20;99.90
4279;DHT22;2153;47.744;10.580;2022-08-05T01:53:25;17.00;99.90
4279;DHT22;2153;47.744;10.580;2022-08-05T01:55:56;16.90;99.90
4279;DHT22;2153;47.744;10.580;2022-08-05T01:58:26;16.90;99.90
4279;DHT22;2153;47.744;10.580;2022-08-05T02:00:56;16.90;99.90
4279;DHT22;2153;47.744;10.580;2022-08-05T02:03:25;16.80;99.90
4279;DHT22;2153;47.744;10.580;2022-08-05T02:05:54;16.80;99.90
4279;DHT22;2153;47.744;10.580;2022-08-05T02:08:21;16.80;99.90
4279;DHT22;2153;47.744;10.580;2022-08-05T02:10:51;16.80;99.90
4279;DHT22;2153;47.744;10.580;2022-08-05T02:13:25;16.80;99.90
4279;DHT22;2153;47.744;10.580;2022-08-05T02:15:59;16.80;99.90
4279;DHT22;2153;47.744;10.580;2022-08-05T02:18:31;16.90;99.90
4279;DHT22;2153;47.744;10.580;2022-08-05T02:21:04;17.00;99.90
4279;DHT22;2153;47.744;10.580;2022-08-05T02:23:35;17.00;99.90
4279;DHT22;2153;47.744;10.580;2022-08-05T02:26:06;16.90;99.90
4279;DHT22;2153;47.744;10.580;2022-08-05T02:28:36;16.90;99.90
4279;DHT22;2153;47.744;10.580;2022-08-05T02:31:07;17.00;99.90
4279;DHT22;2153;47.744;10.580;2022-08-05T02:33:37;17.00;99.90
4279;DHT22;2153;47.744;10.580;2022-08-05T02:36:08;17.10;99.90
4279;DHT22;2153;47.744;10.580;2022-08-05T02:38:36;17.20;99.90
4279;DHT22;2153;47.744;10.580;2022-08-05T02:41:04;17.20;99.90
4279;DHT22;2153;47.744;10.580;2022-08-05T02:43:33;17.40;99.90
4279;DHT22;2153;47.744;10.580;2022-08-05T02:46:02;17.30;99.90
4279;DHT22;2153;47.744;10.580;2022-08-05T02:48:31;17.20;99.90
4279;DHT22;2153;47.744;10.580;2022-08-05T02:50:59;17.10;99.90
4279;DHT22;2153;47.744;10.580;2022-08-05T02:53:26;17.20;99.90
4279;DHT22;2153;47.744;10.580;2022-08-05T02:55:54;17.20;99.90
4279;DHT22;2153;47.744;10.580;2022-08-05T02:58:22;17.30;99.90
4279;DHT22;2153;47.744;10.580;2022-08-05T03:00:52;17.30;99.90
4279;DHT22;2153;47.744;10.580;2022-08-05T03:03:21;17.30;99.90
4279;DHT22;2153;47.744;10.580;2022-08-05T03:05:50;17.30;99.90
4279;DHT22;2153;47.744;10.580;2022-08-05T03:08:17;17.30;99.90
4279;DHT22;2153;47.744;10.580;2022-08-05T03:10:45;17.40;99.90
4279;DHT22;2153;47.744;10.580;2022-08-05T03:13:12;17.50;99.90
4279;DHT22;2153;47.744;10.580;2022-08-05T03:15:41;17.60;99.90
4279;DHT22;2153;47.744;10.580;2022-08-05T03:18:08;17.70;99.90
4279;DHT22;2153;47.744;10.580;2022-08-05T03:20:35;17.90;99.90
4279;DHT22;2153;47.744;10.580;2022-08-05T03:23:05;17.90;99.90
4279;DHT22;2153;47.744;10.580;2022-08-05T03:25:34;17.90;99.90
4279;DHT22;2153;47.744;10.580;2022-08-05T03:28:01;18.00;99.90
4279;DHT22;2153;47.744;10.580;2022-08-05T03:30:29;18.00;99.90
4279;DHT22;2153;47.744;10.580;2022-08-05T03:32:57;18.00;99.90
4279;DHT22;2153;47.744;10.580;2022-08-05T03:35:24;18.00;99.90
4279;DHT22;2153;47.744;10.580;2022-08-05T03:37:52;18.00;99.90
4279;DHT22;2153;47.744;10.580;2022-08-05T03:40:20;18.00;99.90
4279;DHT22;2153;47.744;10.580;2022-08-05T03:42:47;17.90;99.90
4279;DHT22;2153;47.744;10.580;2022-08-05T03:45:14;17.70;99.90
4279;DHT22;2153;47.744;10.580;2022-08-05T03:47:41;17.60;99.90
4279;DHT22;2153;47.744;10.580;2022-08-05T03:50:08;17.40;99.90
4279;DHT22;2153;47.744;10.580;2022-08-05T03:52:39;17.30;99.90
4279;DHT22;2153;47.744;10.580;2022-08-05T03:55:10;17.40;99.90
4279;DHT22;2153;47.744;10.580;2022-08-05T03:57:40;17.50;99.90
4279;DHT22;2153;47.744;10.580;2022-08-05T04:00:11;17.60;99.90
4279;DHT22;2153;47.744;10.580;2022-08-05T04:02:42;17.60;99.90
4279;DHT22;2153;47.744;10.580;2022-08-05T04:05:11;17.80;99.90
4279;DHT22;2153;47.744;10.580;2022-08-05T04:07:39;17.90;99.90
4279;DHT22;2153;47.744;10.580;2022-08-05T04:10:07;18.10;99.90
4279;DHT22;2153;47.744;10.580;2022-08-05T04:12:35;18.40;99.90
4279;DHT22;2153;47.744;10.580;2022-08-05T04:15:04;18.50;99.90
4279;DHT22;2153;47.744;10.580;2022-08-05T04:17:32;18.70;99.90
4279;DHT22;2153;47.744;10.580;2022-08-05T04:19:59;18.90;99.90
4279;DHT22;2153;47.744;10.580;2022-08-05T04:22:26;19.20;99.90
4279;DHT22;2153;47.744;10.580;2022-08-05T04:24:53;19.30;99.90
4279;DHT22;2153;47.744;10.580;2022-08-05T04:27:20;19.40;99.90
4279;DHT22;2153;47.744;10.580;2022-08-05T04:29:47;19.60;99.90
4279;DHT22;2153;47.744;10.580;2022-08-05T04:32:15;19.70;99.90
4279;DHT22;2153;47.744;10.580;2022-08-05T04:34:42;19.90;99.90
4279;DHT22;2153;47.744;10.580;2022-08-05T04:37:09;20.10;99.90
4279;DHT22;2153;47.744;10.580;2022-08-05T04:39:35;20.20;99.90
4279;DHT22;2153;47.744;10.580;2022-08-05T04:42:03;20.30;99.90
4279;DHT22;2153;47.744;10.580;2022-08-05T04:44:30;20.50;99.90
4279;DHT22;2153;47.744;10.580;2022-08-05T04:46:57;20.70;99.90
4279;DHT22;2153;47.744;10.580;2022-08-05T04:49:25;20.90;99.90
4279;DHT22;2153;47.744;10.580;2022-08-05T04:51:51;21.10;99.90
4279;DHT22;2153;47.744;10.580;2022-08-05T04:54:18;21.20;99.90
4279;DHT22;2153;47.744;10.580;2022-08-05T04:56:46;21.20;99.90
4279;DHT22;2153;47.744;10.580;2022-08-05T04:59:13;21.20;99.90
4279;DHT22;2153;47.744;10.580;2022-08-05T05:01:40;21.20;99.90
4279;DHT22;2153;47.744;10.580;2022-08-05T05:04:07;21.20;99.90
4279;DHT22;2153;47.744;10.580;2022-08-05T05:06:35;21.20;99.90
4279;DHT22;2153;47.744;10.580;2022-08-05T05:09:02;21.20;99.90
4279;DHT22;2153;47.744;10.580;2022-08-05T05:11:29;21.30;99.90
4279;DHT22;2153;47.744;10.580;2022-08-05T05:13:55;21.40;99.90
4279;DHT22;2153;47.744;10.580;2022-08-05T05:16:22;21.60;99.90
4279;DHT22;2153;47.744;10.580;2022-08-05T05:18:49;21.80;99.90
4279;DHT22;2153;47.744;10.580;2022-08-05T05:21:15;21.80;99.90
4279;DHT22;2153;47.744;10.580;2022-08-05T05:23:44;21.90;99.90
4279;DHT22;2153;47.744;10.580;2022-08-05T05:26:10;21.80;99.90
4279;DHT22;2153;47.744;10.580;2022-08-05T05:28:37;21.80;99.90
4279;DHT22;2153;47.744;10.580;2022-08-05T05:31:04;21.80;99.90
4279;DHT22;2153;47.744;10.580;2022-08-05T05:33:31;21.70;99.90
4279;DHT22;2153;47.744;10.580;2022-08-05T05:35:57;21.70;99.90
4279;DHT22;2153;47.744;10.580;2022-08-05T05:38:24;21.70;99.90
4279;DHT22;2153;47.744;10.580;2022-08-05T05:40:54;21.70;99.90
4279;DHT22;2153;47.744;10.580;2022-08-05T05:43:21;21.70;99.90
4279;DHT22;2153;47.744;10.580;2022-08-05T05:45:48;21.60;99.90
4279;DHT22;2153;47.744;10.580;2022-08-05T05:48:15;21.60;99.90
4279;DHT22;2153;47.744;10.580;2022-08-05T05:50:41;21.60;99.90
4279;DHT22;2153;47.744;10.580;2022-08-05T05:53:08;21.60;99.90
4279;DHT22;2153;47.744;10.580;2022-08-05T05:55:36;21.60;99.90
4279;DHT22;2153;47.744;10.580;2022-08-05T05:58:04;21.70;99.90
4279;DHT22;2153;47.744;10.580;2022-08-05T06:00:30;21.70;99.90
4279;DHT22;2153;47.744;10.580;2022-08-05T06:02:57;21.80;99.90
4279;DHT22;2153;47.744;10.580;2022-08-05T06:05:25;21.80;99.90
4279;DHT22;2153;47.744;10.580;2022-08-05T06:07:52;21.80;99.90
4279;DHT22;2153;47.744;10.580;2022-08-05T06:10:19;21.90;99.90
4279;DHT22;2153;47.744;10.580;2022-08-05T06:12:45;21.80;99.90
4279;DHT22;2153;47.744;10.580;2022-08-05T06:15:14;21.80;99.90
4279;DHT22;2153;47.744;10.580;2022-08-05T06:17:40;21.80;99.90
4279;DHT22;2153;47.744;10.580;2022-08-05T06:20:08;21.90;99.90
4279;DHT22;2153;47.744;10.580;2022-08-05T06:22:34;21.90;99.90
4279;DHT22;2153;47.744;10.580;2022-08-05T06:25:02;21.90;99.90
4279;DHT22;2153;47.744;10.580;2022-08-05T06:27:29;21.90;99.90
4279;DHT22;2153;47.744;10.580;2022-08-05T06:29:56;21.90;99.90
4279;DHT22;2153;47.744;10.580;2022-08-05T06:32:24;22.00;99.90
4279;DHT22;2153;47.744;10.580;2022-08-05T06:34:51;22.10;99.90
4279;DHT22;2153;47.744;10.580;2022-08-05T06:37:18;22.10;99.90
4279;DHT22;2153;47.744;10.580;2022-08-05T06:39:44;22.20;99.90
4279;DHT22;2153;47.744;10.580;2022-08-05T06:42:11;22.30;99.90
4279;DHT22;2153;47.744;10.580;2022-08-05T06:44:41;22.40;99.90
4279;DHT22;2153;47.744;10.580;2022-08-05T06:47:07;22.50;99.90
4279;DHT22;2153;47.744;10.580;2022-08-05T06:49:36;22.60;99.90
4279;DHT22;2153;47.744;10.580;2022-08-05T06:52:03;22.60;99.90
4279;DHT22;2153;47.744;10.580;2022-08-05T06:54:30;22.80;99.90
4279;DHT22;2153;47.744;10.580;2022-08-05T06:56:56;22.90;99.90
4279;DHT22;2153;47.744;10.580;2022-08-05T06:59:23;23.00;99.90
4279;DHT22;2153;47.744;10.580;2022-08-05T07:01:50;23.10;99.90
4279;DHT22;2153;47.744;10.580;2022-08-05T07:04:17;23.20;99.90
4279;DHT22;2153;47.744;10.580;2022-08-05T07:06:45;23.20;99.90
4279;DHT22;2153;47.744;10.580;2022-08-05T07:09:11;23.30;99.90
4279;DHT22;2153;47.744;10.580;2022-08-05T07:11:38;23.40;99.90
4279;DHT22;2153;47.744;10.580;2022-08-05T07:14:05;23.50;99.90
4279;DHT22;2153;47.744;10.580;2022-08-05T07:16:49;23.60;99.90
4279;DHT22;2153;47.744;10.580;2022-08-05T07:19:18;23.60;99.90
4279;DHT22;2153;47.744;10.580;2022-08-05T07:21:47;23.70;99.90
4279;DHT22;2153;47.744;10.580;2022-08-05T07:24:14;23.90;99.90
4279;DHT22;2153;47.744;10.580;2022-08-05T07:26:42;24.10;99.90
4279;DHT22;2153;47.744;10.580;2022-08-05T07:29:09;24.30;99.90
4279;DHT22;2153;47.744;10.580;2022-08-05T07:31:36;24.90;99.90
4279;DHT22;2153;47.744;10.580;2022-08-05T07:34:03;25.50;99.90
4279;DHT22;2153;47.744;10.580;2022-08-05T07:36:30;25.90;99.90
4279;DHT22;2153;47.744;10.580;2022-08-05T07:38:59;26.00;99.90
4279;DHT22;2153;47.744;10.580;2022-08-05T07:41:26;26.40;99.90
4279;DHT22;2153;47.744;10.580;2022-08-05T07:43:54;26.60;99.90
4279;DHT22;2153;47.744;10.580;2022-08-05T07:48:46;27.30;99.90
4279;DHT22;2153;47.744;10.580;2022-08-05T07:51:13;27.50;99.90
4279;DHT22;2153;47.744;10.580;2022-08-05T07:53:41;27.60;99.90
4279;DHT22;2153;47.744;10.580;2022-08-05T07:56:09;27.50;99.90
4279;DHT22;2153;47.744;10.580;2022-08-05T07:58:36;27.50;99.90
4279;DHT22;2153;47.744;10.580;2022-08-05T08:01:02;27.70;99.90
4279;DHT22;2153;47.744;10.580;2022-08-05T08:03:29;27.90;99.90
4279;DHT22;2153;47.744;10.580;2022-08-05T08:05:56;27.90;99.90
4279;DHT22;2153;47.744;10.580;2022-08-05T08:08:22;28.00;99.90
4279;DHT22;2153;47.744;10.580;2022-08-05T08:10:49;28.10;99.90
4279;DHT22;2153;47.744;10.580;2022-08-05T08:13:17;28.30;99.90
4279;DHT22;2153;47.744;10.580;2022-08-05T08:15:44;28.30;99.90
4279;DHT22;2153;47.744;10.580;2022-08-05T08:18:11;28.20;99.90
4279;DHT22;2153;47.744;10.580;2022-08-05T08:20:37;28.30;99.90
4279;DHT22;2153;47.744;10.580;2022-08-05T08:23:04;28.30;99.90
4279;DHT22;2153;47.744;10.580;2022-08-05T08:25:32;28.50;99.90
4279;DHT22;2153;47.744;10.580;2022-08-05T08:27:59;28.60;99.90
4279;DHT22;2153;47.744;10.580;2022-08-05T08:30:27;28.50;99.90
4279;DHT22;2153;47.744;10.580;2022-08-05T08:32:54;28.60;99.90
4279;DHT22;2153;47.744;10.580;2022-08-05T08:35:20;28.70;99.90
4279;DHT22;2153;47.744;10.580;2022-08-05T08:37:47;28.80;99.90
4279;DHT22;2153;47.744;10.580;2022-08-05T08:40:14;28.70;99.90
4279;DHT22;2153;47.744;10.580;2022-08-05T08:42:45;28.90;99.90
4279;DHT22;2153;47.744;10.580;2022-08-05T08:45:14;29.40;99.90
4279;DHT22;2153;47.744;10.580;2022-08-05T08:47:45;29.40;99.90
4279;DHT22;2153;47.744;10.580;2022-08-05T08:50:12;29.60;99.90
4279;DHT22;2153;47.744;10.580;2022-08-05T08:52:41;29.80;99.90
4279;DHT22;2153;47.744;10.580;2022-08-05T08:55:12;29.80;99.90
4279;DHT22;2153;47.744;10.580;2022-08-05T08:57:39;29.90;99.90
4279;DHT22;2153;47.744;10.580;2022-08-05T09:00:07;30.10;99.90
4279;DHT22;2153;47.744;10.580;2022-08-05T09:02:34;29.90;99.90
4279;DHT22;2153;47.744;10.580;2022-08-05T09:05:03;30.00;99.90
4279;DHT22;2153;47.744;10.580;2022-08-05T09:07:30;29.60;99.90
4279;DHT22;2153;47.744;10.580;2022-08-05T09:09:56;29.60;99.90
4279;DHT22;2153;47.744;10.580;2022-08-05T09:12:23;29.60;99.90
4279;DHT22;2153;47.744;10.580;2022-08-05T09:14:50;29.90;99.90
4279;DHT22;2153;47.744;10.580;2022-08-05T09:17:18;30.10;99.90
4279;DHT22;2153;47.744;10.580;2022-08-05T09:19:44;30.30;99.90
4279;DHT22;2153;47.744;10.580;2022-08-05T09:22:12;30.50;99.90
4279;DHT22;2153;47.744;10.580;2022-08-05T09:24:39;30.80;99.90
4279;DHT22;2153;47.744;10.580;2022-08-05T09:27:09;30.90;99.90
4279;DHT22;2153;47.744;10.580;2022-08-05T09:29:38;31.00;99.90
4279;DHT22;2153;47.744;10.580;2022-08-05T09:32:08;31.10;99.90
4279;DHT22;2153;47.744;10.580;2022-08-05T09:34:51;30.90;99.90
4279;DHT22;2153;47.744;10.580;2022-08-05T09:37:22;31.10;99.90
4279;DHT22;2153;47.744;10.580;2022-08-05T09:39:49;31.00;99.90
4279;DHT22;2153;47.744;10.580;2022-08-05T09:42:17;31.10;99.90
4279;DHT22;2153;47.744;10.580;2022-08-05T09:44:45;31.40;99.90
4279;DHT22;2153;47.744;10.580;2022-08-05T09:47:13;31.40;99.90
4279;DHT22;2153;47.744;10.580;2022-08-05T09:49:42;31.30;99.90
4279;DHT22;2153;47.744;10.580;2022-08-05T09:52:17;31.20;99.90
4279;DHT22;2153;47.744;10.580;2022-08-05T09:54:53;30.50;99.90
4279;DHT22;2153;47.744;10.580;2022-08-05T09:57:36;30.00;99.90
4279;DHT22;2153;47.744;10.580;2022-08-05T10:00:08;29.10;99.90
4279;DHT22;2153;47.744;10.580;2022-08-05T10:02:38;28.60;99.90
4279;DHT22;2153;47.744;10.580;2022-08-05T10:05:07;28.20;99.90
4279;DHT22;2153;47.744;10.580;2022-08-05T10:07:46;28.10;99.90
4279;DHT22;2153;47.744;10.580;2022-08-05T10:10:16;27.70;99.90
4279;DHT22;2153;47.744;10.580;2022-08-05T10:12:45;27.40;99.90
4279;DHT22;2153;47.744;10.580;2022-08-05T10:15:13;27.20;99.90
4279;DHT22;2153;47.744;10.580;2022-08-05T10:17:40;27.10;99.90
4279;DHT22;2153;47.744;10.580;2022-08-05T10:20:08;27.10;99.90
4279;DHT22;2153;47.744;10.580;2022-08-05T10:22:38;26.90;99.90
4279;DHT22;2153;47.744;10.580;2022-08-05T10:25:06;27.10;99.90
4279;DHT22;2153;47.744;10.580;2022-08-05T10:27:34;27.60;99.90
4279;DHT22;2153;47.744;10.580;2022-08-05T10:30:01;28.20;99.90
4279;DHT22;2153;47.744;10.580;2022-08-05T10:32:29;28.60;99.90
4279;DHT22;2153;47.744;10.580;2022-08-05T10:34:57;28.90;99.90
4279;DHT22;2153;47.744;10.580;2022-08-05T10:37:24;29.10;99.90
4279;DHT22;2153;47.744;10.580;2022-08-05T10:39:55;29.10;99.90
4279;DHT22;2153;47.744;10.580;2022-08-05T10:42:25;28.90;99.90
4279;DHT22;2153;47.744;10.580;2022-08-05T10:44:55;29.10;99.90
4279;DHT22;2153;47.744;10.580;2022-08-05T10:47:30;28.90;99.90
4279;DHT22;2153;47.744;10.580;2022-08-05T10:50:03;28.10;99.90
4279;DHT22;2153;47.744;10.580;2022-08-05T10:52:39;27.60;99.90
4279;DHT22;2153;47.744;10.580;2022-08-05T10:55:08;27.20;99.90
4279;DHT22;2153;47.744;10.580;2022-08-05T10:57:36;27.30;99.90
4279;DHT22;2153;47.744;10.580;2022-08-05T11:00:12;27.80;99.90
4279;DHT22;2153;47.744;10.580;2022-08-05T11:03:08;27.90;99.90
4279;DHT22;2153;47.744;10.580;2022-08-05T11:05:35;28.00;99.90
4279;DHT22;2153;47.744;10.580;2022-08-05T11:08:04;27.80;99.90
4279;DHT22;2153;47.744;10.580;2022-08-05T11:10:33;27.70;99.90
4279;DHT22;2153;47.744;10.580;2022-08-05T11:13:02;27.80;99.90
4279;DHT22;2153;47.744;10.580;2022-08-05T11:15:32;27.50;99.90
4279;DHT22;2153;47.744;10.580;2022-08-05T11:18:24;27.50;99.90
4279;DHT22;2153;47.744;10.580;2022-08-05T11:20:52;27.60;99.90
4279;DHT22;2153;47.744;10.580;2022-08-05T11:23:27;27.50;99.90
4279;DHT22;2153;47.744;10.580;2022-08-05T11:26:07;27.20;99.90
4279;DHT22;2153;47.744;10.580;2022-08-05T11:28:46;26.90;99.90
4279;DHT22;2153;47.744;10.580;2022-08-05T11:31:24;26.50;99.90
